Home > Products > Valid Products > TAF

000
FTUS43 KMQT 310500
TAFSAW
TAF
KSAW 310521Z 3106/0106 01020G32KT 1SM -SHSN BLSN BKN008
     FM311300 36018G28KT 3SM -SHSN OVC015
     FM311600 01019G27KT 5SM -SHSN OVC020
     FM312300 35012G18KT P6SM -SHSN OVC030
     FM010400 36007KT P6SM -SHSN BKN035
      AMD LTD TO CLD VIS AND WIND 3106/3110=



000
FTUS43 KMQT 310500
TAFCMX
TAF
KCMX 310521Z 3106/0106 01020G30KT 2SM -SHSN OVC020
     FM310900 01016G26KT 4SM -SHSN OVC020
     FM311400 01018G23KT P6SM -SHSN OVC025
     FM312000 34013G19KT P6SM BKN035
     FM010500 02004KT P6SM SCT035=



000
FTUS43 KMQT 310000 AAA
TAFSAW
TAF AMD
KSAW 310043Z 3101/3124 31010KT 6SM -SHRA OVC015
     FM310130 33012G18KT 5SM -SHRASN OVC012
     FM310400 36015G27KT 2SM -SHSN BLSN OVC010
     FM310600 01020G32KT 1SM -SHSN BLSN BKN008
     FM311300 36018G28KT 3SM -SHSN OVC015
     FM311600 01019G27KT 5SM -SHSN OVC020
     FM312300 35012G18KT P6SM -SHSN OVC030
      AMD LTD TO CLD VIS AND WIND 3102/3110=



000
FTUS43 KMQT 310000 AAA
TAFCMX
TAF AMD
KCMX 310029Z 3100/3124 34012G23KT 6SM -SHSN BKN008 OVC012
     FM310200 01017G25KT 1 1/2SM -SHSN BLSN OVC008
     FM310400 01020G30KT 3SM -SHSN OVC015
     FM311100 01016G26KT 4SM -SHSN OVC020
     FM311400 01018G23KT P6SM -SHSN OVC025
     FM312000 34013G19KT P6SM BKN035=



000
FTUS43 KMQT 302300
TAFSAW
TAF
KSAW 302336Z 3100/3124 31011KT 6SM -SHRA OVC015
     FM310200 33012G18KT 5SM -SHRASN OVC012
     FM310400 36015G27KT 2SM -SHSN OVC010
     FM310600 01020G32KT 1SM -SHSN BKN008
     FM311400 36018G28KT 3SM -SHSN OVC015
      AMD LTD TO CLD VIS AND WIND 3102/3110=



000
FTUS43 KMQT 302300
TAFCMX
TAF
KCMX 302336Z 3100/3124 34008KT P6SM -RA SCT009 OVC014
     FM310130 34015G23KT 6SM -SHRASN SCT008 OVC012
     FM310200 01017G27KT 1 1/2SM -SHSN OVC008
     FM310400 01020G30KT 3SM -SHSN OVC015
     FM311100 01016G27KT 4SM -SHSN OVC020=



000
FTUS43 KMQT 302100 AAA
TAFCMX
TAF AMD
KCMX 302150Z 3022/3118 34008KT P6SM -RA SCT009 OVC014
     FM302300 34015G23KT 6SM -SHRASN SCT008 OVC015
     FM310200 01017G27KT 1 1/2SM -SHSN OVC008
     FM310400 01020G30KT 3SM -SHSN OVC015
     FM311100 01016G27KT 4SM -SHSN OVC020=



000
FTUS43 KMQT 302100 AAA
TAFCMX
TAF AMD
KCMX 302150Z 3022/3118 34008KT P6SM -RA SCT009 OVC014
     FM302300 34015G23KT 6SM -SHRASN SCT008 OVC015
     FM310200 01017G27KT 1 1/2SM -SHSN OVC008
     FM310400 01020G30KT 3SM -SHSN OVC015
     FM311100 01016G27KT 4SM -SHSN OVC020=



000
FTUS43 KMQT 301700
TAFSAW
TAF
KSAW 301731Z 3018/3118 25004KT P6SM VCSH OVC025
     FM302100 31011KT 6SM -SHRA OVC015
     FM310200 33012G18KT 5SM -SHRASN OVC012
     FM310400 36015G27KT 2SM -SHSN OVC010
     FM310600 01020G32KT 1SM -SHSN BKN008
     FM311400 36018G28KT 3SM -SHSN OVC015
      AMD LTD TO CLD VIS AND WIND 3102/3110=



000
FTUS43 KMQT 301700
TAFCMX
TAF
KCMX 301731Z 3018/3118 28012KT 6SM -RA OVC014
     FM302300 33015G23KT 6SM -SHRASN OVC015
     FM310200 01017G27KT 1 1/2SM -SHSN OVC008
     FM310400 01020G30KT 3SM -SHSN OVC015
     FM311100 01016G27KT 4SM -SHSN OVC020=



000
FTUS43 KMQT 301700
TAFCMX
TAF
KCMX 301731Z 3018/3118 28012KT 6SM -RA OVC014
     FM302300 33015G23KT 6SM -SHRASN OVC015
     FM310200 01017G27KT 1 1/2SM -SHSN OVC008
     FM310400 01020G30KT 3SM -SHSN OVC015
     FM311100 01016G27KT 4SM -SHSN OVC020=



000
FTUS43 KMQT 301700
TAFSAW
TAF
KSAW 301731Z 3018/3118 25004KT P6SM VCSH OVC025
     FM302100 31011KT 6SM -SHRA OVC015
     FM310200 33012G18KT 5SM -SHRASN OVC012
     FM310400 36015G27KT 2SM -SHSN OVC010
     FM310600 01020G32KT 1SM -SHSN BKN008
     FM311400 36018G28KT 3SM -SHSN OVC015
      AMD LTD TO CLD VIS AND WIND 3102/3110=



000
FTUS43 KMQT 301500 AAA
TAFCMX
TAF AMD
KCMX 301522Z 3015/3112 25007KT 6SM -RA BKN007 OVC014
     FM301800 30010G20KT 6SM -SHRA OVC015
     FM302300 33011G16KT 6SM -SHRASN OVC015
     FM310200 01017G27KT 2SM -SHSN OVC015
     FM310400 01020G30KT 3SM -SHSN OVC020=



000
FTUS43 KMQT 301100 RRA
TAFSAW
TAF
KSAW 301140Z 3012/3112 25004KT P6SM OVC025
      TEMPO 3013/3017 6SM -SHRA OVC018
     FM302100 31011KT 6SM -SHRA OVC015
     FM310200 33012G18KT 5SM -SHRASN OVC012
     FM310400 36015G27KT 2SM -SHSN OVC010
     FM310700 36020G30KT 1SM -SHSN OVC010
      AMD LTD TO CLD VIS AND WIND 3102/3110=



000
FTUS43 KMQT 301100 RRA
TAFCMX
TAF
KCMX 301140Z 3012/3112 25007KT 6SM -RA BKN007 OVC014
     FM301500 29008KT P6SM -SHRA OVC015
     FM301800 30010G20KT 6SM -SHRA OVC015
     FM302300 33011G16KT 6SM -SHRASN OVC015
     FM310200 01017G27KT 2SM -SHSN OVC015
     FM310400 01020G30KT 3SM -SHSN OVC020=



000
FTUS43 KMQT 300500
TAFCMX
TAF
KCMX 300520Z 3006/3106 25005KT P6SM OVC020
     FM300900 28004KT P6SM OVC015
      TEMPO 3009/3013 6SM -SHRA
     FM301800 30010G20KT 6SM -SHRA OVC015
     FM302200 33011G16KT 6SM -SHRASN OVC015
     FM310200 01017G27KT 3SM -SHSN OVC020=



000
FTUS43 KMQT 300500
TAFSAW
TAF
KSAW 300520Z 3006/3106 25004KT P6SM OVC025
      TEMPO 3013/3017 6SM -SHRA OVC018
     FM302100 30012G22KT 6SM -SHRA OVC015
     FM310000 33012G22KT 5SM -SHRASN OVC012
     FM310300 36015G27KT 2SM -SHSN OVC010
      AMD LTD TO CLD VIS AND WIND TIL 301000=



000
FTUS43 KMQT 300200 AAA
TAFSAW
TAF AMD
KSAW 300220Z 3002/3024 VRB03KT P6SM OVC025
     FM301200 27006KT P6SM -SHRA OVC015
     FM302100 34006KT 6SM -SHRA OVC015
      AMD LTD TO CLD VIS AND WIND 3002/3010=



000
FTUS43 KMQT 292300
TAFCMX
TAF
KCMX 292331Z 3000/3024 29005KT P6SM OVC020
     FM300800 00000KT 6SM -SHRA OVC020
     FM301100 VRB03KT P6SM -SHRA OVC015
     FM302000 34007KT 6SM -SHRA OVC015=



000
FTUS43 KMQT 292300
TAFSAW
TAF
KSAW 292331Z 3000/3024 32005KT P6SM OVC035
      TEMPO 3000/3002 BKN025 OVC035
     FM300500 00000KT P6SM OVC030
     FM301200 27006KT P6SM -SHRA OVC015
     FM302100 34006KT 6SM -SHRA OVC015
      AMD LTD TO CLD VIS AND WIND 3002/3010=



000
FTUS43 KMQT 291700
TAFSAW
TAF
KSAW 291735Z 2918/3018 33010KT P6SM -SHRA BKN025
     FM292200 33007KT P6SM BKN030
     FM300200 29003KT P6SM BKN035
     FM300600 00000KT P6SM BKN030
     FM301200 VRB03KT P6SM -SHRA OVC025
     FM301500 25004KT P6SM -SHRA OVC015
      AMD LTD TO CLD VIS AND WIND 3002/3010=



000
FTUS43 KMQT 291700
TAFCMX
TAF
KCMX 291735Z 2918/3018 31010G16KT P6SM BKN025
     FM292300 30007KT P6SM BKN030
     FM300300 VRB03KT P6SM OVC030
     FM300700 00000KT P6SM -SHRA OVC025
     FM301100 VRB03KT P6SM -SHRA OVC015=



000
FTUS43 KMQT 291100
TAFSAW
TAF
KSAW 291139Z 2912/3012 31011G17KT P6SM -SHRASN OVC015
     FM291500 32013G20KT P6SM OVC025
     FM292100 33012G18KT P6SM BKN030
     FM300000 33006KT P6SM BKN030
     FM300600 VRB03KT P6SM BKN025
      AMD LTD TO CLD VIS AND WIND 3002/3010=



000
FTUS43 KMQT 291100
TAFCMX
TAF
KCMX 291139Z 2912/3012 31012G20KT P6SM -SHRASN OVC015
     FM291400 32016G23KT P6SM OVC025
     FM292100 31010KT P6SM BKN025
     FM301000 VRB03KT P6SM BKN025=



000
FTUS43 KMQT 290500
TAFSAW
TAF
KSAW 290540Z 2906/3006 25010G16KT P6SM VCSH OVC025
     FM290900 31011G17KT P6SM -SHRASN OVC018
     FM291500 32013G20KT P6SM OVC025
     FM292100 33012G18KT P6SM BKN035
     FM300000 33006KT P6SM BKN035
      AMD LTD TO CLD VIS AND WIND TIL 291000=



000
FTUS43 KMQT 290500
TAFCMX
TAF
KCMX 290540Z 2906/3006 31015G23KT 3SM -SHRASN OVC015
     FM291400 32016G23KT P6SM OVC025
     FM292100 31014KT P6SM BKN035
     FM300000 31005KT P6SM BKN035=



000
FTUS43 KMQT 290300 AAA
TAFSAW
TAF AMD
KSAW 290341Z 2904/2924 26010G16KT P6SM VCSH BKN025
      TEMPO 2904/2906 SCT025 BKN035
     FM290600 27010G16KT P6SM VCSH OVC025
     FM290900 31011G17KT P6SM -SHRASN OVC018
     FM291500 32013G20KT P6SM OVC020
     FM292000 33012G18KT P6SM BKN035
      AMD LTD TO CLD VIS AND WIND 2902/2910=



000
FTUS43 KMQT 282300
TAFSAW
TAF
KSAW 282338Z 2900/2924 24012G19KT P6SM VCSH SCT025 BKN040
     FM290400 25010G16KT P6SM -SHRA OVC025
     FM290900 31011G17KT P6SM -SHRASN OVC018
     FM291500 32013G20KT P6SM OVC020
     FM292000 33012G18KT P6SM BKN035
      AMD LTD TO CLD VIS AND WIND 2902/2910=



000
FTUS43 KMQT 282300
TAFCMX
TAF
KCMX 282338Z 2900/2924 28020G30KT 6SM -SHRA OVC015
      TEMPO 2900/2904 SCT015 OVC025
     FM290600 31015G23KT 3SM -SHRASN OVC015
     FM291400 32016G23KT P6SM OVC025
     FM291900 31014KT P6SM BKN035=



000
FTUS43 KMQT 282200 AAA
TAFSAW
TAF AMD
KSAW 282221Z 2822/2918 24012G19KT P6SM VCSH SCT025 BKN040
      TEMPO 2822/2824 BKN025 OVC040
     FM290400 25010G16KT P6SM -SHRA OVC025
     FM290700 27012G22KT P6SM -SHRA OVC020
     FM290900 31011G17KT P6SM -SHRASN OVC018
     FM291500 32013G20KT P6SM -SHRA OVC020
      AMD LTD TO CLD VIS AND WIND 2902/2910=



000
FTUS43 KMQT 281700
TAFCMX
TAF
KCMX 281733Z 2818/2918 27018G28KT P6SM -SHRA SCT008 OVC015
      TEMPO 2818/2822 BKN008 OVC015
     FM282200 28020G30KT 5SM -SHRA OVC015
     FM290500 30016G23KT 4SM -SHRA OVC015
     FM290600 31015G23KT 3SM -SHRASN OVC015
     FM291400 33016G23KT P6SM OVC025=



000
FTUS43 KMQT 281700
TAFSAW
TAF
KSAW 281733Z 2818/2918 25012G19KT P6SM SCT025 BKN035
      TEMPO 2819/2821 BKN025 OVC035
     FM282200 26010G16KT P6SM -SHRA OVC025
     FM290600 30012G22KT P6SM -SHRA OVC020
     FM291000 31011G17KT P6SM -SHRASN OVC018
     FM291500 32013G20KT P6SM -SHRA OVC020
      AMD LTD TO CLD VIS AND WIND 2902/2910=



000
FTUS43 KMQT 281500 AAB
TAFSAW
TAF AMD
KSAW 281541Z 2816/2912 25005KT P6SM SCT015 BKN030
     FM281800 25014G22KT P6SM BKN015
     FM290200 24010KT P6SM BKN035
     FM290900 29010KT P6SM BKN025
      AMD LTD TO CLD VIS AND WIND 2902/2910=



000
FTUS43 KMQT 281500 AAA
TAFCMX
TAF AMD
KCMX 281537Z 2816/2912 28015G25KT P6SM SCT007 OVC015
      TEMPO 2816/2818 5SM -SHRA BKN007 OVC015
     FM281800 27015G25KT P6SM -SHRA OVC010
     FM282000 27017G25KT P6SM -SHRA OVC015=



000
FTUS43 KMQT 281300 AAA
TAFSAW
TAF AMD
KSAW 281306Z 2813/2912 26005KT P6SM OVC015
     FM281500 25014G22KT P6SM BKN035
     FM290200 24010KT P6SM BKN035
     FM290900 29010KT P6SM BKN025
      AMD LTD TO CLD VIS AND WIND 2902/2910=



000
FTUS43 KMQT 281100
TAFSAW
TAF
KSAW 281120Z 2812/2912 26003KT P6SM BKN035
     FM281300 25009G15KT P6SM SCT010 BKN020
     FM281500 25014G22KT P6SM BKN035
     FM290200 24010KT P6SM BKN035
     FM290900 29010KT P6SM BKN025
      AMD LTD TO CLD VIS AND WIND 2902/2910=



000
FTUS43 KMQT 281100
TAFCMX
TAF
KCMX 281120Z 2812/2912 28010G20KT P6SM SCT005 BKN040
      TEMPO 2812/2815 BKN005
     FM281600 27015G25KT P6SM VCSH OVC010
     FM282000 27017G25KT P6SM -SHRA OVC015=



000
FTUS43 KMQT 281000 AAB
TAFCMX
TAF AMD
KCMX 281033Z 2811/2906 28006KT 1SM BR BKN001
     FM281100 28010G20KT P6SM SCT003 BKN090
     FM281600 28015G25KT P6SM VCSH OVC008
     FM282000 28017G25KT P6SM -SHRA OVC015=



000
FTUS43 KMQT 281000 AAB
TAFSAW
TAF AMD
KSAW 281029Z 2810/2906 VRB03KT P6SM BKN040
     FM281300 23009G15KT P6SM SCT010 BKN020
     FM281500 25014G22KT P6SM BKN035
     FM290200 24010KT P6SM BKN035
      AMD LTD TO CLD VIS AND WIND TIL 281000=



    US Dept of Commerce
    National Oceanic and Atmospheric Administration
    National Weather Service
    1325 East West Highway
    Silver Spring, MD 20910
    Page Author: NWS Internet Services Team
Disclaimer
Information Quality
Credits
Glossary
Privacy Policy
Freedom of Information Act (FOIA)
About Us
Career Opportunities